Time;durP1;ratioP1;P1;durP2;ratioP2;P2;SDS_P1;SDS_P2;PMS_P1;PMS_P2;Temp;Humidity;BMP_temperature;BMP_pressure;BME280_temperature;BME280_humidity;BME280_pressure;Samples;Min_cycle;Max_cycle;Signal;HPM_P1;HPM_P2
2022/03/10 00:02:24;;;;;;;31.57;16.47;;;;;;;;;;5053316;28;20742;-61
2022/03/10 00:04:51;;;;;;;28.37;17.60;;;;;;;;;;5053633;28;20545;-61
2022/03/10 00:07:17;;;;;;;32.43;16.13;;;;;;;;;;5053640;28;20825;-61
2022/03/10 00:09:43;;;;;;;30.67;16.23;;;;;;;;;;5053878;28;20756;-61
2022/03/10 00:12:09;;;;;;;47.30;18.17;;;;;;;;;;5053718;28;20881;-62
2022/03/10 00:14:36;;;;;;;31.07;15.03;;;;;;;;;;5052412;28;20436;-61
2022/03/10 00:17:02;;;;;;;31.60;16.20;;;;;;;;;;5053467;28;20454;-61
2022/03/10 00:19:28;;;;;;;28.47;16.10;;;;;;;;;;5053659;28;20905;-62
2022/03/10 00:21:54;;;;;;;30.43;15.50;;;;;;;;;;5053493;28;20423;-62
2022/03/10 00:24:20;;;;;;;24.77;14.37;;;;;;;;;;5053582;28;20411;-62
2022/03/10 00:26:46;;;;;;;30.67;14.10;;;;;;;;;;5053397;28;20462;-65
2022/03/10 00:29:13;;;;;;;29.73;16.13;;;;;;;;;;5053432;28;20446;-61
2022/03/10 00:31:40;;;;;;;30.10;14.50;;;;;;;;;;5053448;28;20418;-61
2022/03/10 00:34:06;;;;;;;26.33;14.50;;;;;;;;;;5053408;28;20497;-63
2022/03/10 00:36:32;;;;;;;25.13;14.20;;;;;;;;;;5053243;28;20476;-61
2022/03/10 00:38:58;;;;;;;28.60;14.70;;;;;;;;;;5053249;28;20412;-61
2022/03/10 00:41:24;;;;;;;28.53;15.30;;;;;;;;;;5053131;28;20404;-61
2022/03/10 00:43:50;;;;;;;33.43;17.87;;;;;;;;;;5053273;28;20405;-64
2022/03/10 00:46:16;;;;;;;25.23;15.17;;;;;;;;;;5051801;28;20510;-62
2022/03/10 00:48:42;;;;;;;32.40;15.23;;;;;;;;;;5053174;28;20419;-61
2022/03/10 00:51:08;;;;;;;34.00;15.57;;;;;;;;;;5053247;28;20439;-62
2022/03/10 00:53:34;;;;;;;29.80;15.17;;;;;;;;;;5051974;28;20761;-64
2022/03/10 00:56:00;;;;;;;27.73;15.10;;;;;;;;;;5053187;28;20405;-63
2022/03/10 00:58:26;;;;;;;25.20;13.97;;;;;;;;;;5053015;28;20451;-61
2022/03/10 01:00:53;;;;;;;23.50;14.13;;;;;;;;;;5053111;28;20411;-61
2022/03/10 01:03:19;;;;;;;27.50;14.93;;;;;;;;;;5052759;28;20776;-61
2022/03/10 01:05:46;;;;;;;29.57;14.93;;;;;;;;;;5052962;28;20418;-66
2022/03/10 01:08:12;;;;;;;28.77;15.27;;;;;;;;;;5052893;28;20460;-64
2022/03/10 01:10:38;;;;;;;29.80;15.77;;;;;;;;;;5052903;28;20914;-62
2022/03/10 01:13:11;;;;;;;25.37;14.37;;;;;;;;;;5052994;28;20431;-72
2022/03/10 01:15:37;;;;;;;26.67;14.53;;;;;;;;;;5055904;28;20423;-72
2022/03/10 01:18:03;;;;;;;30.20;15.67;;;;;;;;;;5056935;28;20928;-71
2022/03/10 01:20:29;;;;;;;33.30;14.17;;;;;;;;;;5056918;28;20411;-62
2022/03/10 01:22:55;;;;;;;29.83;15.43;;;;;;;;;;5056905;28;20420;-64
2022/03/10 01:25:21;;;;;;;29.07;16.10;;;;;;;;;;5056806;28;20477;-62
2022/03/10 01:27:48;;;;;;;29.07;15.00;;;;;;;;;;5056674;28;21077;-61
2022/03/10 01:30:14;;;;;;;26.37;14.50;;;;;;;;;;5056735;28;20434;-61
2022/03/10 01:32:41;;;;;;;24.20;14.53;;;;;;;;;;5056780;28;20759;-61
2022/03/10 01:35:08;;;;;;;26.10;15.00;;;;;;;;;;5056539;28;20398;-60
2022/03/10 01:37:37;;;;;;;25.83;13.87;;;;;;;;;;5056605;28;20517;-61
2022/03/10 01:40:04;;;;;;;29.27;15.10;;;;;;;;;;5056662;28;20431;-60
2022/03/10 01:42:30;;;;;;;28.37;14.77;;;;;;;;;;5056479;28;20434;-63
2022/03/10 01:44:56;;;;;;;26.33;14.47;;;;;;;;;;5055197;28;20510;-61
2022/03/10 01:47:22;;;;;;;25.40;13.77;;;;;;;;;;5056360;28;20569;-61
2022/03/10 01:49:48;;;;;;;27.23;15.13;;;;;;;;;;5056436;28;20509;-61
2022/03/10 01:52:15;;;;;;;26.83;14.23;;;;;;;;;;5056353;28;20432;-64
2022/03/10 01:54:42;;;;;;;29.03;15.90;;;;;;;;;;5056172;28;20515;-61
2022/03/10 01:57:08;;;;;;;29.17;14.77;;;;;;;;;;5056239;28;20418;-64
2022/03/10 01:59:34;;;;;;;24.23;14.30;;;;;;;;;;5056247;28;20425;-63
2022/03/10 02:02:00;;;;;;;25.10;14.60;;;;;;;;;;5056199;28;20426;-62
2022/03/10 02:04:26;;;;;;;28.83;14.83;;;;;;;;;;5055998;28;20463;-63
2022/03/10 02:06:53;;;;;;;25.37;13.27;;;;;;;;;;5055995;28;20783;-62
2022/03/10 02:12:05;;;;;;;25.00;13.93;;;;;;;;;;5056040;28;20456;-62
2022/03/10 02:17:22;;;;;;;27.43;14.37;;;;;;;;;;5056192;28;20392;-72
2022/03/10 02:19:52;;;;;;;27.47;14.77;;;;;;;;;;5055959;28;20398;-66
2022/03/10 02:22:18;;;;;;;24.77;13.97;;;;;;;;;;5055730;28;20431;-71
2022/03/10 02:24:45;;;;;;;24.77;13.90;;;;;;;;;;5055135;28;20392;-71
2022/03/10 02:27:15;;;;;;;29.50;14.60;;;;;;;;;;5055718;28;20542;-70
2022/03/10 02:29:43;;;;;;;26.67;14.67;;;;;;;;;;5055696;28;20420;-69
2022/03/10 02:32:09;;;;;;;21.93;12.73;;;;;;;;;;5055523;28;20390;-68
2022/03/10 02:34:35;;;;;;;25.40;14.17;;;;;;;;;;5055472;28;20433;-70
2022/03/10 02:37:01;;;;;;;28.30;14.37;;;;;;;;;;5055538;28;20489;-71
2022/03/10 02:39:27;;;;;;;28.40;13.47;;;;;;;;;;5055460;28;20460;-69
2022/03/10 02:41:53;;;;;;;29.40;14.37;;;;;;;;;;5055429;28;20459;-70
2022/03/10 02:44:19;;;;;;;27.60;14.63;;;;;;;;;;5055343;28;20399;-72
2022/03/10 02:46:45;;;;;;;23.23;13.23;;;;;;;;;;5055215;28;20465;-70
2022/03/10 02:49:11;;;;;;;29.50;14.20;;;;;;;;;;5055330;28;20418;-72
2022/03/10 02:51:37;;;;;;;25.03;15.10;;;;;;;;;;5055094;28;20461;-72
2022/03/10 02:54:03;;;;;;;27.97;14.60;;;;;;;;;;5055140;28;20497;-70
2022/03/10 02:56:29;;;;;;;29.07;13.77;;;;;;;;;;5055071;28;20433;-71
2022/03/10 02:58:55;;;;;;;26.90;13.60;;;;;;;;;;5055228;28;20875;-72
2022/03/10 03:01:22;;;;;;;27.70;14.63;;;;;;;;;;5055041;28;20940;-72
2022/03/10 03:03:48;;;;;;;24.70;14.40;;;;;;;;;;5053429;28;20525;-61
2022/03/10 03:06:15;;;;;;;28.90;14.70;;;;;;;;;;5055037;28;20948;-62
2022/03/10 03:08:41;;;;;;;25.00;14.20;;;;;;;;;;5054935;28;20442;-61
2022/03/10 03:11:07;;;;;;;25.70;14.20;;;;;;;;;;5054957;28;20392;-61
2022/03/10 03:13:34;;;;;;;29.47;13.70;;;;;;;;;;5054902;28;20399;-71
2022/03/10 03:16:00;;;;;;;25.00;12.70;;;;;;;;;;5054785;28;20397;-71
2022/03/10 03:18:26;;;;;;;25.40;13.27;;;;;;;;;;5054929;28;20407;-70
2022/03/10 03:20:52;;;;;;;28.17;15.50;;;;;;;;;;5054632;28;20514;-70
2022/03/10 03:23:18;;;;;;;26.73;13.87;;;;;;;;;;5054640;28;20411;-70
2022/03/10 03:25:44;;;;;;;29.27;13.60;;;;;;;;;;5054728;28;20478;-69
2022/03/10 03:28:10;;;;;;;23.73;13.83;;;;;;;;;;5054460;28;20844;-71
2022/03/10 03:30:36;;;;;;;29.07;13.80;;;;;;;;;;5054499;28;20406;-70
2022/03/10 03:33:02;;;;;;;24.40;13.60;;;;;;;;;;5053219;28;20462;-71
2022/03/10 03:35:28;;;;;;;23.27;13.13;;;;;;;;;;5054438;28;20403;-71
2022/03/10 03:37:54;;;;;;;28.50;14.87;;;;;;;;;;5053439;28;20395;-71
2022/03/10 03:40:20;;;;;;;25.70;13.73;;;;;;;;;;5054301;28;20411;-72
2022/03/10 03:42:46;;;;;;;30.57;14.63;;;;;;;;;;5054247;28;20446;-72
2022/03/10 03:45:12;;;;;;;29.67;15.20;;;;;;;;;;5054176;28;20430;-72
2022/03/10 03:47:38;;;;;;;32.90;14.47;;;;;;;;;;5054116;28;20463;-72
2022/03/10 03:50:05;;;;;;;23.87;13.10;;;;;;;;;;5054102;28;20427;-71
2022/03/10 03:52:31;;;;;;;24.33;14.07;;;;;;;;;;5054044;28;20544;-71
2022/03/10 03:54:57;;;;;;;25.20;13.77;;;;;;;;;;5053804;28;20415;-61
2022/03/10 03:57:23;;;;;;;21.17;12.93;;;;;;;;;;5054102;28;20910;-61
2022/03/10 03:59:49;;;;;;;27.70;13.83;;;;;;;;;;5053963;28;20410;-61
2022/03/10 04:02:15;;;;;;;23.87;14.00;;;;;;;;;;5053881;28;20419;-61
2022/03/10 04:04:41;;;;;;;24.47;13.30;;;;;;;;;;5053576;28;20468;-61
2022/03/10 04:07:07;;;;;;;27.40;15.87;;;;;;;;;;5053782;28;20519;-61
2022/03/10 04:09:33;;;;;;;23.83;13.00;;;;;;;;;;5053831;28;20445;-64
2022/03/10 04:11:59;;;;;;;27.50;14.53;;;;;;;;;;5053675;28;20410;-64
2022/03/10 04:14:25;;;;;;;24.10;13.93;;;;;;;;;;5053723;28;20410;-62
2022/03/10 04:16:51;;;;;;;25.57;13.93;;;;;;;;;;5053580;28;20892;-63
2022/03/10 04:19:17;;;;;;;29.63;14.23;;;;;;;;;;5053664;28;20418;-61
2022/03/10 04:21:43;;;;;;;27.40;13.17;;;;;;;;;;5053443;28;20462;-67
2022/03/10 04:24:09;;;;;;;26.37;13.70;;;;;;;;;;5053623;28;20415;-66
2022/03/10 04:26:35;;;;;;;28.23;13.40;;;;;;;;;;5053419;28;20456;-67
2022/03/10 04:29:01;;;;;;;23.50;12.77;;;;;;;;;;5053561;28;20420;-64
2022/03/10 04:31:27;;;;;;;26.63;14.13;;;;;;;;;;5053420;28;20425;-64
2022/03/10 04:33:54;;;;;;;25.97;14.33;;;;;;;;;;5053547;28;20410;-71
2022/03/10 04:36:20;;;;;;;22.83;12.90;;;;;;;;;;5053306;28;20461;-69
2022/03/10 04:38:45;;;;;;;29.40;13.73;;;;;;;;;;5053487;28;20423;-65
2022/03/10 04:41:12;;;;;;;24.03;13.07;;;;;;;;;;5053250;28;20894;-63
2022/03/10 04:43:38;;;;;;;21.27;13.40;;;;;;;;;;5053154;28;20453;-68
2022/03/10 04:46:04;;;;;;;24.93;13.30;;;;;;;;;;5053399;28;20423;-63
2022/03/10 04:48:30;;;;;;;26.10;14.10;;;;;;;;;;5051856;28;20485;-62
2022/03/10 04:50:56;;;;;;;21.93;12.10;;;;;;;;;;5052075;28;20472;-65
2022/03/10 04:53:23;;;;;;;25.37;13.20;;;;;;;;;;5053218;28;20427;-61
2022/03/10 04:55:49;;;;;;;20.20;12.47;;;;;;;;;;5053193;28;20536;-61
2022/03/10 04:58:15;;;;;;;28.10;13.77;;;;;;;;;;5051926;28;20430;-63
2022/03/10 05:00:41;;;;;;;25.67;12.50;;;;;;;;;;5052980;28;20478;-66
2022/03/10 05:03:07;;;;;;;25.57;13.00;;;;;;;;;;5053117;28;20426;-63
2022/03/10 05:05:33;;;;;;;28.03;13.33;;;;;;;;;;5052851;28;20470;-70
2022/03/10 05:07:59;;;;;;;26.10;13.30;;;;;;;;;;5052934;28;20636;-72
2022/03/10 05:10:25;;;;;;;22.73;13.40;;;;;;;;;;5052844;28;20435;-66
2022/03/10 05:12:52;;;;;;;24.60;13.13;;;;;;;;;;5052853;28;20422;-71
2022/03/10 05:15:23;;;;;;;21.80;11.83;;;;;;;;;;5052878;28;20546;-72
2022/03/10 05:17:49;;;;;;;22.00;11.90;;;;;;;;;;5052960;28;20423;-72
2022/03/10 05:20:16;;;;;;;28.27;13.37;;;;;;;;;;5052831;28;20410;-71
2022/03/10 05:22:43;;;;;;;31.97;14.23;;;;;;;;;;5052949;28;20411;-73
2022/03/10 05:25:09;;;;;;;20.33;12.97;;;;;;;;;;5052757;28;20962;-72
2022/03/10 05:27:35;;;;;;;27.93;13.53;;;;;;;;;;5052901;28;20466;-73
2022/03/10 05:30:02;;;;;;;19.17;11.87;;;;;;;;;;5052804;28;20413;-62
2022/03/10 05:32:28;;;;;;;24.50;12.73;;;;;;;;;;5051576;28;20468;-73
2022/03/10 05:34:55;;;;;;;25.17;13.53;;;;;;;;;;5052512;28;20427;-65
2022/03/10 05:37:21;;;;;;;24.33;13.43;;;;;;;;;;5052648;28;20475;-73
2022/03/10 05:39:47;;;;;;;26.27;13.67;;;;;;;;;;5052844;28;20441;-72
2022/03/10 05:42:13;;;;;;;29.80;14.80;;;;;;;;;;5052645;28;20905;-69
2022/03/10 05:44:39;;;;;;;26.50;13.33;;;;;;;;;;5051413;28;20419;-69
2022/03/10 05:47:06;;;;;;;23.60;13.53;;;;;;;;;;5052508;28;20573;-72
2022/03/10 05:49:33;;;;;;;21.60;12.43;;;;;;;;;;5052560;28;20412;-71
2022/03/10 05:51:59;;;;;;;20.57;12.13;;;;;;;;;;5052381;28;20430;-69
2022/03/10 05:54:24;;;;;;;22.00;12.10;;;;;;;;;;5052439;28;20411;-73
2022/03/10 05:56:50;;;;;;;21.43;11.90;;;;;;;;;;5052547;28;20952;-73
2022/03/10 05:59:17;;;;;;;23.73;13.20;;;;;;;;;;5052504;28;20521;-71
2022/03/10 06:01:43;;;;;;;25.50;13.37;;;;;;;;;;5055539;28;20453;-75
2022/03/10 06:04:09;;;;;;;24.90;13.70;;;;;;;;;;5055924;28;21029;-70
2022/03/10 06:06:35;;;;;;;21.10;12.80;;;;;;;;;;5054750;28;20418;-67
2022/03/10 06:09:00;;;;;;;27.03;13.40;;;;;;;;;;5056017;28;20902;-71
2022/03/10 06:11:26;;;;;;;23.60;13.83;;;;;;;;;;5055945;28;20472;-73
2022/03/10 06:13:53;;;;;;;23.77;12.93;;;;;;;;;;5054646;28;20422;-65
2022/03/10 06:16:19;;;;;;;28.20;13.83;;;;;;;;;;5055800;28;20517;-62
2022/03/10 06:18:45;;;;;;;25.00;12.53;;;;;;;;;;5055874;28;20425;-63
2022/03/10 06:21:11;;;;;;;24.00;14.23;;;;;;;;;;5055868;28;20824;-62
2022/03/10 06:23:37;;;;;;;24.57;14.07;;;;;;;;;;5055848;28;20472;-65
2022/03/10 06:26:03;;;;;;;24.47;14.20;;;;;;;;;;5054410;28;20765;-61
2022/03/10 06:28:30;;;;;;;24.60;14.43;;;;;;;;;;5055747;28;20471;-62
2022/03/10 06:30:56;;;;;;;27.23;15.33;;;;;;;;;;5055723;28;20401;-63
2022/03/10 06:33:22;;;;;;;24.83;13.43;;;;;;;;;;5055587;28;20420;-61
2022/03/10 06:35:49;;;;;;;25.70;14.47;;;;;;;;;;5055457;28;20428;-62
2022/03/10 06:38:15;;;;;;;25.60;14.10;;;;;;;;;;5055544;28;21180;-63
2022/03/10 06:40:41;;;;;;;29.33;14.00;;;;;;;;;;5055423;28;20410;-61
2022/03/10 06:43:07;;;;;;;26.27;14.00;;;;;;;;;;5055514;28;20497;-61
2022/03/10 06:45:33;;;;;;;24.90;14.43;;;;;;;;;;5054115;28;20501;-61
2022/03/10 06:47:59;;;;;;;31.10;14.90;;;;;;;;;;5055124;28;20964;-64
2022/03/10 06:50:25;;;;;;;28.70;14.17;;;;;;;;;;5055312;28;20902;-61
2022/03/10 06:52:56;;;;;;;29.90;14.90;;;;;;;;;;5055418;28;20406;-62
2022/03/10 06:55:22;;;;;;;23.97;14.20;;;;;;;;;;5055178;28;20399;-61
2022/03/10 06:57:48;;;;;;;36.57;15.33;;;;;;;;;;5054078;28;20480;-62
2022/03/10 07:00:14;;;;;;;29.10;16.10;;;;;;;;;;5054070;28;20415;-65
2022/03/10 07:02:40;;;;;;;28.20;14.97;;;;;;;;;;5055152;28;20422;-62
2022/03/10 07:05:08;;;;;;;26.00;13.77;;;;;;;;;;5055059;28;20477;-66
2022/03/10 07:07:34;;;;;;;29.17;14.80;;;;;;;;;;5055054;28;20469;-65
2022/03/10 07:10:00;;;;;;;27.10;14.97;;;;;;;;;;5055088;28;20963;-69
2022/03/10 07:12:29;;;;;;;31.37;14.80;;;;;;;;;;5054860;28;20412;-64
2022/03/10 07:14:55;;;;;;;29.80;16.20;;;;;;;;;;5054838;28;20407;-66
2022/03/10 07:17:21;;;;;;;28.00;14.30;;;;;;;;;;5054899;28;20414;-68
2022/03/10 07:19:47;;;;;;;31.73;15.47;;;;;;;;;;5054746;28;20418;-64
2022/03/10 07:22:19;;;;;;;24.40;15.47;;;;;;;;;;5054780;28;20468;-66
2022/03/10 07:24:46;;;;;;;24.73;15.60;;;;;;;;;;5054589;28;20402;-66
2022/03/10 07:27:12;;;;;;;28.97;16.07;;;;;;;;;;5054601;28;20453;-65
2022/03/10 07:29:38;;;;;;;36.27;16.23;;;;;;;;;;5054785;28;21048;-62
2022/03/10 07:32:04;;;;;;;34.33;16.43;;;;;;;;;;5054570;28;20414;-62
2022/03/10 07:34:31;;;;;;;29.57;14.63;;;;;;;;;;5054530;28;20415;-67
2022/03/10 07:36:57;;;;;;;31.23;15.90;;;;;;;;;;5054423;28;20403;-62
2022/03/10 07:39:23;;;;;;;35.17;16.97;;;;;;;;;;5054593;28;20411;-62
2022/03/10 07:41:50;;;;;;;27.73;15.67;;;;;;;;;;5054413;28;20429;-65
2022/03/10 07:44:16;;;;;;;31.57;16.73;;;;;;;;;;5054334;28;20400;-67
2022/03/10 07:46:42;;;;;;;32.90;17.23;;;;;;;;;;5053156;28;20421;-66
2022/03/10 07:49:10;;;;;;;28.67;15.67;;;;;;;;;;5054414;28;20937;-70
2022/03/10 07:51:36;;;;;;;33.47;17.00;;;;;;;;;;5053065;28;20795;-65
2022/03/10 07:54:03;;;;;;;31.13;16.17;;;;;;;;;;5054138;28;20508;-64
2022/03/10 07:56:29;;;;;;;29.97;16.33;;;;;;;;;;5054068;28;20874;-63
2022/03/10 07:58:55;;;;;;;36.40;17.00;;;;;;;;;;5052857;28;20437;-64
2022/03/10 08:01:21;;;;;;;32.27;17.53;;;;;;;;;;5054032;28;20877;-69
2022/03/10 08:03:47;;;;;;;30.27;16.50;;;;;;;;;;5053662;28;20476;-66
2022/03/10 08:06:13;;;;;;;29.40;16.53;;;;;;;;;;5054067;28;20410;-66
2022/03/10 08:08:40;;;;;;;32.67;17.00;;;;;;;;;;5054095;28;20483;-70
2022/03/10 08:11:06;;;;;;;29.97;16.33;;;;;;;;;;5054207;28;20420;-69
2022/03/10 08:13:33;;;;;;;30.70;17.10;;;;;;;;;;5053980;28;20469;-72
2022/03/10 08:15:59;;;;;;;33.93;15.80;;;;;;;;;;5053787;28;20415;-73
2022/03/10 08:18:26;;;;;;;26.23;15.83;;;;;;;;;;5053849;28;20423;-70
2022/03/10 08:20:52;;;;;;;26.83;15.50;;;;;;;;;;5053558;28;20530;-72
2022/03/10 08:23:18;;;;;;;26.17;15.63;;;;;;;;;;5053121;28;20419;-66
2022/03/10 08:25:45;;;;;;;30.70;17.67;;;;;;;;;;5053653;28;20956;-66
2022/03/10 08:28:12;;;;;;;32.60;17.50;;;;;;;;;;5053619;28;20471;-65
2022/03/10 08:30:38;;;;;;;36.63;16.97;;;;;;;;;;5053576;28;20430;-64
2022/03/10 08:33:04;;;;;;;25.40;15.90;;;;;;;;;;5053558;28;20563;-63
2022/03/10 08:35:31;;;;;;;26.77;15.23;;;;;;;;;;5053325;28;20410;-62
2022/03/10 08:37:57;;;;;;;23.77;14.90;;;;;;;;;;5053498;28;20414;-68
2022/03/10 08:40:23;;;;;;;29.07;16.47;;;;;;;;;;5053461;28;20402;-66
2022/03/10 08:42:50;;;;;;;27.50;16.33;;;;;;;;;;5053361;28;20522;-64
2022/03/10 08:45:16;;;;;;;27.43;15.37;;;;;;;;;;5053359;28;20403;-64
2022/03/10 08:47:42;;;;;;;24.97;14.60;;;;;;;;;;5053312;28;20490;-65
2022/03/10 08:50:09;;;;;;;29.10;17.33;;;;;;;;;;5053169;28;20407;-65
2022/03/10 08:52:35;;;;;;;40.70;17.43;;;;;;;;;;5053832;28;20419;-63
2022/03/10 08:55:01;;;;;;;28.17;16.60;;;;;;;;;;5053769;28;20670;-63
2022/03/10 08:57:27;;;;;;;27.90;15.70;;;;;;;;;;5053181;28;20816;-64
2022/03/10 08:59:53;;;;;;;26.63;15.67;;;;;;;;;;5053476;28;20405;-77
2022/03/10 09:02:19;;;;;;;31.70;16.20;;;;;;;;;;5053157;28;20499;-77
2022/03/10 09:04:45;;;;;;;26.97;16.70;;;;;;;;;;5052832;28;20461;-72
2022/03/10 09:07:12;;;;;;;31.03;17.57;;;;;;;;;;5053182;28;20975;-76
2022/03/10 09:09:38;;;;;;;31.03;17.00;;;;;;;;;;5052979;28;20492;-73
2022/03/10 09:12:04;;;;;;;29.53;17.53;;;;;;;;;;5053304;28;20410;-72
2022/03/10 09:14:30;;;;;;;30.60;17.53;;;;;;;;;;5053389;28;20401;-71
2022/03/10 09:16:57;;;;;;;25.43;17.10;;;;;;;;;;5052948;28;20479;-73
2022/03/10 09:19:23;;;;;;;38.33;17.57;;;;;;;;;;5053689;28;20445;-75
2022/03/10 09:21:49;;;;;;;28.70;16.23;;;;;;;;;;5052948;28;20425;-74
2022/03/10 09:24:15;;;;;;;30.60;16.90;;;;;;;;;;5052947;28;20480;-72
2022/03/10 09:26:41;;;;;;;31.77;16.90;;;;;;;;;;5052956;28;20441;-73
2022/03/10 09:29:07;;;;;;;30.03;16.67;;;;;;;;;;5051792;28;20456;-68
2022/03/10 09:31:33;;;;;;;29.17;16.07;;;;;;;;;;5052899;28;20425;-68
2022/03/10 09:33:59;;;;;;;24.67;14.60;;;;;;;;;;5052842;28;20776;-68
2022/03/10 09:36:26;;;;;;;31.13;15.30;;;;;;;;;;5055467;28;20406;-66
2022/03/10 09:38:52;;;;;;;32.40;17.17;;;;;;;;;;5056859;28;20515;-69
2022/03/10 09:41:18;;;;;;;22.40;15.00;;;;;;;;;;5056536;28;20453;-71
2022/03/10 09:43:46;;;;;;;16.53;10.83;;;;;;;;;;5056664;28;20924;-64
2022/03/10 09:46:12;;;;;;;15.00;8.03;;;;;;;;;;5056524;28;20413;-65
2022/03/10 09:48:39;;;;;;;22.40;13.40;;;;;;;;;;5055673;28;20479;-66
2022/03/10 09:51:05;;;;;;;21.60;11.97;;;;;;;;;;5056613;28;20463;-67
2022/03/10 09:53:31;;;;;;;17.20;8.67;;;;;;;;;;5056439;28;20787;-68
2022/03/10 09:55:58;;;;;;;15.80;7.10;;;;;;;;;;5056334;28;20413;-73
2022/03/10 09:58:24;;;;;;;13.67;7.70;;;;;;;;;;5056449;28;20446;-67
2022/03/10 10:00:50;;;;;;;10.30;7.60;;;;;;;;;;5056337;28;20420;-64
2022/03/10 10:03:16;;;;;;;10.60;6.70;;;;;;;;;;5056127;28;20428;-67
2022/03/10 10:05:42;;;;;;;9.77;6.17;;;;;;;;;;5056331;28;20444;-70
2022/03/10 10:08:13;;;;;;;11.27;6.50;;;;;;;;;;5056141;28;20508;-68
2022/03/10 10:10:50;;;;;;;8.70;6.93;;;;;;;;;;5056214;28;20409;-65
2022/03/10 10:13:28;;;;;;;8.60;6.43;;;;;;;;;;5056122;28;20416;-67
2022/03/10 10:16:10;;;;;;;14.17;6.40;;;;;;;;;;5054684;28;20418;-68
2022/03/10 10:18:37;;;;;;;11.40;6.53;;;;;;;;;;5055974;28;20489;-69
2022/03/10 10:21:05;;;;;;;7.97;6.20;;;;;;;;;;5055944;28;20444;-71
2022/03/10 10:23:32;;;;;;;10.93;7.00;;;;;;;;;;5055907;28;20452;-68
2022/03/10 10:26:02;;;;;;;9.87;6.33;;;;;;;;;;5055832;28;20413;-67
2022/03/10 10:28:28;;;;;;;11.33;7.30;;;;;;;;;;5055777;28;20460;-67
2022/03/10 10:30:58;;;;;;;9.57;7.00;;;;;;;;;;5055892;28;20401;-64
2022/03/10 10:33:24;;;;;;;10.73;7.20;;;;;;;;;;5055644;28;20496;-68
2022/03/10 10:35:50;;;;;;;9.77;6.40;;;;;;;;;;5055781;28;20463;-67
2022/03/10 10:38:30;;;;;;;9.20;6.47;;;;;;;;;;5055819;28;20437;-70
2022/03/10 10:41:15;;;;;;;9.47;6.67;;;;;;;;;;5056310;28;20763;-67
2022/03/10 10:43:42;;;;;;;10.70;6.43;;;;;;;;;;5055837;28;20413;-65
2022/03/10 10:46:10;;;;;;;10.20;5.80;;;;;;;;;;5055234;28;20409;-64
2022/03/10 10:48:47;;;;;;;8.90;6.37;;;;;;;;;;5055422;28;20472;-66
2022/03/10 10:51:13;;;;;;;9.80;6.03;;;;;;;;;;5055310;28;20422;-67
2022/03/10 10:53:40;;;;;;;9.73;6.10;;;;;;;;;;5055238;28;20777;-68
2022/03/10 10:56:06;;;;;;;8.80;5.57;;;;;;;;;;5053908;28;20421;-68
2022/03/10 10:58:32;;;;;;;6.83;5.60;;;;;;;;;;5055191;28;20418;-68
2022/03/10 11:00:58;;;;;;;11.23;6.13;;;;;;;;;;5055147;28;20413;-64
2022/03/10 11:03:25;;;;;;;10.57;6.83;;;;;;;;;;5054761;28;20409;-65
2022/03/10 11:05:52;;;;;;;7.50;5.80;;;;;;;;;;5055222;28;20897;-71
2022/03/10 11:08:20;;;;;;;9.77;6.17;;;;;;;;;;5055120;28;20465;-67
2022/03/10 11:10:46;;;;;;;9.33;6.10;;;;;;;;;;5053654;28;20819;-68
2022/03/10 11:13:12;;;;;;;7.80;6.03;;;;;;;;;;5054947;28;20416;-71
2022/03/10 11:15:39;;;;;;;8.23;5.67;;;;;;;;;;5054932;28;20433;-66
2022/03/10 11:18:05;;;;;;;8.30;5.33;;;;;;;;;;5054833;28;20504;-68
2022/03/10 11:20:34;;;;;;;9.20;5.80;;;;;;;;;;5054833;28;20462;-63
2022/03/10 11:23:09;;;;;;;6.90;5.00;;;;;;;;;;5054753;28;20416;-69
2022/03/10 11:25:54;;;;;;;4.63;3.97;;;;;;;;;;5054891;28;20409;-67
2022/03/10 11:28:30;;;;;;;5.23;3.77;;;;;;;;;;5054892;28;20475;-63
2022/03/10 11:31:00;;;;;;;4.87;3.93;;;;;;;;;;5054671;28;20413;-65
2022/03/10 11:33:39;;;;;;;5.70;3.50;;;;;;;;;;5053547;28;20771;-70
2022/03/10 11:36:21;;;;;;;6.70;4.70;;;;;;;;;;5054496;28;20496;-71
2022/03/10 11:38:57;;;;;;;6.17;4.07;;;;;;;;;;5054750;28;20885;-67
2022/03/10 11:41:26;;;;;;;6.80;4.17;;;;;;;;;;5054681;28;20412;-67
2022/03/10 11:43:56;;;;;;;5.07;3.50;;;;;;;;;;5053337;28;20983;-72
2022/03/10 11:46:29;;;;;;;4.93;3.67;;;;;;;;;;5054347;28;20413;-71
2022/03/10 11:49:08;;;;;;;6.30;3.97;;;;;;;;;;5054122;28;20481;-70
2022/03/10 11:51:42;;;;;;;4.50;3.77;;;;;;;;;;5054343;28;20475;-70
2022/03/10 11:54:08;;;;;;;5.87;3.80;;;;;;;;;;5055118;28;20416;-66
2022/03/10 11:56:43;;;;;;;5.23;3.40;;;;;;;;;;5054861;28;20409;-65
2022/03/10 11:59:28;;;;;;;6.60;3.77;;;;;;;;;;5054358;28;20421;-73
2022/03/10 12:01:58;;;;;;;5.90;3.20;;;;;;;;;;5054546;28;20402;-66
2022/03/10 12:04:35;;;;;;;4.20;3.27;;;;;;;;;;5052976;28;20997;-69
2022/03/10 12:07:01;;;;;;;4.40;3.40;;;;;;;;;;5054923;28;20452;-74
2022/03/10 12:09:27;;;;;;;5.90;3.30;;;;;;;;;;5055119;28;20417;-74
2022/03/10 12:11:54;;;;;;;5.17;3.93;;;;;;;;;;5055199;28;20429;-69
2022/03/10 12:14:34;;;;;;;4.20;3.30;;;;;;;;;;5054723;28;20422;-74
2022/03/10 12:17:00;;;;;;;3.97;3.40;;;;;;;;;;5053858;28;20439;-72
2022/03/10 12:19:44;;;;;;;4.93;4.13;;;;;;;;;;5052548;28;20421;-76
2022/03/10 12:22:10;;;;;;;4.17;3.20;;;;;;;;;;5053916;28;20510;-72
2022/03/10 12:24:36;;;;;;;3.60;2.90;;;;;;;;;;5053642;28;20463;-76
2022/03/10 12:27:03;;;;;;;3.60;3.30;;;;;;;;;;5053387;28;20449;-74
2022/03/10 12:29:32;;;;;;;4.50;3.20;;;;;;;;;;5053517;28;20487;-67
2022/03/10 12:32:03;;;;;;;4.20;3.53;;;;;;;;;;5053512;28;20409;-63
2022/03/10 12:34:30;;;;;;;4.83;3.47;;;;;;;;;;5053575;28;20405;-63
2022/03/10 12:36:59;;;;;;;4.07;3.67;;;;;;;;;;5053294;28;20484;-65
2022/03/10 12:39:27;;;;;;;4.30;3.80;;;;;;;;;;5053358;28;20468;-65
2022/03/10 12:42:00;;;;;;;3.70;3.30;;;;;;;;;;5052474;28;20763;-64
2022/03/10 12:44:26;;;;;;;5.67;3.80;;;;;;;;;;5053320;28;20409;-75
2022/03/10 12:46:53;;;;;;;6.00;4.07;;;;;;;;;;5053485;28;20409;-74
2022/03/10 12:49:36;;;;;;;7.03;4.17;;;;;;;;;;5053246;28;20912;-73
2022/03/10 12:52:09;;;;;;;5.03;3.50;;;;;;;;;;5053213;28;20468;-79
2022/03/10 12:54:37;;;;;;;5.67;4.20;;;;;;;;;;5053261;28;20504;-72
2022/03/10 12:57:05;;;;;;;5.57;4.10;;;;;;;;;;5053263;28;20441;-75
2022/03/10 12:59:35;;;;;;;6.73;4.00;;;;;;;;;;5051993;28;20425;-76
2022/03/10 13:02:11;;;;;;;6.20;4.00;;;;;;;;;;5053306;28;20424;-75
2022/03/10 13:04:45;;;;;;;5.13;4.00;;;;;;;;;;5053031;28;20544;-75
2022/03/10 13:07:18;;;;;;;6.33;4.30;;;;;;;;;;5053131;28;20461;-76
2022/03/10 13:09:56;;;;;;;4.90;4.40;;;;;;;;;;5056118;28;20439;-75
2022/03/10 13:12:25;;;;;;;7.20;4.53;;;;;;;;;;5059949;28;20412;-77
2022/03/10 13:14:51;;;;;;;8.50;5.20;;;;;;;;;;5059680;28;20830;-70
2022/03/10 13:17:17;;;;;;;6.83;4.43;;;;;;;;;;5059614;28;20889;-72
2022/03/10 13:19:44;;;;;;;7.73;5.50;;;;;;;;;;5059631;28;20398;-77
2022/03/10 13:22:11;;;;;;;5.43;4.17;;;;;;;;;;5058475;28;20418;-78
2022/03/10 13:24:39;;;;;;;6.00;4.90;;;;;;;;;;5059731;28;20775;-75
2022/03/10 13:27:08;;;;;;;5.17;4.50;;;;;;;;;;5059835;28;20970;-77
2022/03/10 13:29:34;;;;;;;4.53;4.00;;;;;;;;;;5059820;28;20555;-76
2022/03/10 13:32:01;;;;;;;5.73;4.67;;;;;;;;;;5059694;28;20393;-71
2022/03/10 13:34:27;;;;;;;8.30;4.67;;;;;;;;;;5059545;28;20421;-69
2022/03/10 13:36:53;;;;;;;6.33;4.50;;;;;;;;;;5059497;28;20393;-66
2022/03/10 13:39:26;;;;;;;7.37;4.87;;;;;;;;;;5059379;28;20441;-68
2022/03/10 13:41:52;;;;;;;7.93;4.90;;;;;;;;;;5059345;28;20411;-79
2022/03/10 13:44:19;;;;;;;5.87;5.10;;;;;;;;;;5059410;28;20496;-77
2022/03/10 13:46:44;;;;;;;6.23;5.10;;;;;;;;;;5059495;28;20467;-80
2022/03/10 13:49:20;;;;;;;5.43;4.27;;;;;;;;;;5059751;28;20433;-73
2022/03/10 13:51:47;;;;;;;10.07;4.70;;;;;;;;;;5059289;28;20446;-75
2022/03/10 13:54:13;;;;;;;5.03;4.40;;;;;;;;;;5059563;28;20915;-75
2022/03/10 13:56:43;;;;;;;8.83;4.80;;;;;;;;;;5059485;28;20946;-79
2022/03/10 13:59:10;;;;;;;6.90;5.30;;;;;;;;;;5059392;28;20409;-68
2022/03/10 14:01:40;;;;;;;8.93;5.27;;;;;;;;;;5059215;28;20432;-65
2022/03/10 14:04:16;;;;;;;6.90;5.03;;;;;;;;;;5058968;28;20464;-64
2022/03/10 14:06:50;;;;;;;5.40;4.67;;;;;;;;;;5059264;28;20815;-65
2022/03/10 14:09:20;;;;;;;5.63;4.93;;;;;;;;;;5059219;28;20989;-66
2022/03/10 14:11:47;;;;;;;6.40;4.90;;;;;;;;;;5057964;28;20441;-65
2022/03/10 14:14:13;;;;;;;7.33;4.80;;;;;;;;;;5057917;28;20414;-73
2022/03/10 14:16:50;;;;;;;6.60;5.10;;;;;;;;;;5059065;28;20486;-68
2022/03/10 14:19:28;;;;;;;6.20;5.20;;;;;;;;;;5059172;28;20466;-72
2022/03/10 14:21:56;;;;;;;7.00;5.00;;;;;;;;;;5056065;28;20779;-66
2022/03/10 14:24:25;;;;;;;6.03;4.73;;;;;;;;;;5055969;28;20544;-63
2022/03/10 14:26:53;;;;;;;6.90;5.23;;;;;;;;;;5054586;28;20432;-65
2022/03/10 14:29:22;;;;;;;9.33;4.90;;;;;;;;;;5055871;28;20860;-66
2022/03/10 14:31:48;;;;;;;7.03;4.87;;;;;;;;;;5055757;28;20401;-68